• Join FlightAware (Why Join?)
  • Login
  • US Flag 
 
08:55AM EST


 

Airport Tracker/Info


-or-


 

Live Flight TrackerFlight Track Log ✈ BJS336 ✈ 29-Jun-2013 ✈ KMDW - KRNO

Flight Track Log - Related Links

Times and Time Zones

All times are in EDT time to prevent confusion due to time zone crossing. See the BJS336 flight status page for this flight to view local times or setup timezone preferences in your user account.

Time Position Orientation Groundspeed Altitude Reporting Facility
EDT Latitude Longitude Course Direction KTS MPH feet Rate Location/Type
11:03AM 41.8000 -87.7833 240° Southwest 183 211 2,100  Level Chicago TRACON
11:04AM 41.7839 -87.8214 240° Southwest 233 268 3,300 1,080 Climbing Chicago Center
11:05AM 41.7322 -87.8731 217° Southwest 233 268 4,000 1,980 Climbing Chicago Center
11:06AM 41.6714 -87.9344 217° Southwest 231 266 7,500 3,240 Climbing Chicago Center
11:07AM 41.6114 -87.9878 214° Southwest 256 295 10,700 2,820 Climbing Chicago Center
11:08AM 41.5422 -88.0517 215° Southwest 299 344 13,300 2,640 Climbing Chicago Center
11:09AM 41.4703 -88.1194 215° Southwest 323 372 16,200 3,240 Climbing Chicago Center
11:10AM 41.3775 -88.1931 211° Southwest 337 388 20,000 2,820 Climbing Chicago Center
11:11AM 41.2900 -88.2325 199° South 338 389 22,100 1,740 Climbing Chicago Center
11:12AM 41.1964 -88.2742 199° South 355 409 23,700 1,500 Climbing Chicago Center
11:13AM 41.0964 -88.3200 199° South 376 433 25,300 1,500 Climbing Chicago Center
11:14AM 40.9981 -88.3733 202° Southwest 384 442 26,800 1,620 Climbing Chicago Center
11:15AM 40.9269 -88.5228 238° Southwest 396 456 28,700 1,680 Climbing Chicago Center
11:16AM 40.8703 -88.6483 239° Southwest 400 460 30,300 1,320 Climbing Chicago Center
11:17AM 40.8125 -88.7744 239° Southwest 401 461 31,500 1,020 Climbing Chicago Center
11:18AM 40.7517 -88.9069 239° Southwest 413 475 32,500 960 Climbing Chicago Center
11:19AM 40.6903 -89.0372 238° Southwest 415 478 33,500 960 Climbing Chicago Center
11:20AM 40.6292 -89.1678 238° Southwest 417 480 34,500 960 Climbing Chicago Center
11:21AM 40.5678 -89.2983 238° Southwest 417 480 35,500 900 Climbing Chicago Center
11:22AM 40.5069 -89.4244 238° Southwest 407 468 36,400 660 Climbing Chicago Center
11:23AM 40.4475 -89.5519 239° Southwest 406 467 36,900 480 Climbing Chicago Center
11:24AM 40.3753 -89.7042 238° Southwest 407 468 37,500 480 Climbing Chicago Center
11:25AM 40.3156 -89.8286 238° Southwest 401 461 38,000 240 Climbing Chicago Center
11:26AM 40.2675 -89.9314 239° Southwest 404 465 38,000  Level Kansas City Center
11:27AM 40.2067 -90.0589 238° Southwest 408 470 38,000  Level Kansas City Center
11:28AM 40.1433 -90.1892 238° Southwest 418 481 38,000  Level Kansas City Center
11:30AM 40.0672 -90.3503 238° Southwest 429 494 38,000  Level Kansas City Center
11:31AM 40.0014 -90.4856 238° Southwest 435 501 38,000  Level Kansas City Center
11:32AM 39.9344 -90.6211 237° Southwest 442 509 38,000  Level Kansas City Center
11:33AM 39.8683 -90.7564 238° Southwest 443 510 38,000  Level Kansas City Center
11:34AM 39.8006 -90.8939 237° Southwest 447 514 38,000  Level Kansas City Center
11:35AM 39.7292 -91.0406 238° Southwest 445 512 38,000  Level Kansas City Center
11:36AM 39.6989 -91.1903 255° West 436 502 38,000  Level Kansas City Center
11:37AM 39.6831 -91.3469 263° West 431 496 38,000  Level Kansas City Center
11:38AM 39.6653 -91.5011 262° West 432 497 38,000  Level Kansas City Center
11:39AM 39.6508 -91.6528 263° West 431 496 38,000  Level Kansas City Center
11:40AM 39.6306 -91.8356 262° West 429 494 38,000  Level Kansas City Center
11:41AM 39.6142 -91.9869 262° West 427 491 38,000  Level Kansas City Center
11:42AM 39.5989 -92.1347 262° West 420 483 38,000  Level Kansas City Center
11:43AM 39.5831 -92.2828 262° West 417 480 38,000  Level Kansas City Center
11:44AM 39.5669 -92.4322 262° West 419 482 38,000  Level Kansas City Center
11:45AM 39.5467 -92.6108 262° West 419 482 38,000  Level Kansas City Center
11:46AM 39.5297 -92.7567 261° West 415 478 38,000  Level Kansas City Center
11:47AM 39.5128 -92.9053 262° West 417 480 38,000  Level Kansas City Center
11:48AM 39.4958 -93.0506 261° West 413 475 38,000  Level Kansas City Center
11:49AM 39.4789 -93.1939 261° West 409 471 38,000  Level Kansas City Center
11:50AM 39.4611 -93.3386 261° West 409 471 38,000  Level Kansas City Center
11:51AM 39.4403 -93.5119 261° West 410 472 38,000  Level Kansas City Center
11:52AM 39.4231 -93.6572 261° West 410 472 38,000  Level Kansas City Center
11:53AM 39.4053 -93.8031 261° West 409 471 38,000  Level Kansas City Center
11:54AM 39.3853 -93.9644 261° West 409 471 38,000  Level Kansas City Center
11:55AM 39.3686 -94.1022 261° West 406 467 38,000  Level Kansas City Center
11:56AM 39.3511 -94.2411 261° West 408 470 38,000  Level Kansas City Center
11:57AM 39.3300 -94.4039 261° West 410 472 38,000  Level Kansas City Center
11:58AM 39.3125 -94.5417 261° West 408 470 38,000  Level Kansas City Center
11:59AM 39.2900 -94.7058 260° West 413 475 38,000  Level Kansas City Center
12:01PM 39.2878 -94.8461 269° West 412 474 38,000  Level Kansas City Center
12:02PM 39.2908 -95.0083 271° West 402 463 38,000  Level Kansas City Center
12:03PM 39.2933 -95.1567 271° West 402 463 38,000  Level Kansas City Center
12:04PM 39.2958 -95.3125 271° West 403 464 38,000  Level Kansas City Center
12:05PM 39.2986 -95.4544 271° West 398 458 38,000  Level Kansas City Center
12:06PM 39.2994 -95.5931 270° West 394 453 38,000  Level Kansas City Center
12:07PM 39.3011 -95.7494 271° West 392 451 38,000  Level Kansas City Center
12:08PM 39.3019 -95.8836 271° West 391 450 38,000  Level Kansas City Center
12:09PM 39.3033 -96.0414 271° West 393 452 38,000  Level Kansas City Center
12:10PM 39.3039 -96.1772 270° West 392 451 38,000  Level Kansas City Center
12:11PM 39.3044 -96.3172 270° West 392 451 38,000  Level Kansas City Center
12:12PM 39.3047 -96.4589 270° West 394 453 38,000  Level Kansas City Center
12:13PM 39.3056 -96.6061 270° West 397 457 38,000  Level Kansas City Center
12:14PM 39.3061 -96.7658 270° West 399 459 38,000  Level Kansas City Center
12:15PM 39.3064 -96.9050 270° West 404 465 38,000 120 Level Kansas City Center
12:17PM 39.3056 -97.2025 270° West 401 461 38,400 240 Climbing Kansas City Center
12:18PM 39.3064 -97.3603 270° West 396 456 38,900 480 Climbing Kansas City Center
12:19PM 39.3053 -97.4950 269° West 394 453 39,400 480 Climbing Kansas City Center
12:20PM 39.3047 -97.6475 270° West 390 449 39,900 240 Climbing Kansas City Center
12:21PM 39.3033 -97.7878 269° West 391 450 40,000  Climbing Kansas City Center
12:22PM 39.3031 -97.9419 270° West 387 445 40,000  Level Kansas City Center
12:23PM 39.3017 -98.0792 269° West 396 456 40,000  Level Kansas City Center
12:24PM 39.2992 -98.2158 269° West 403 464 40,000  Level Kansas City Center
12:25PM 39.2981 -98.3925 270° West 408 470 40,000  Level Kansas City Center
12:26PM 39.2953 -98.5414 269° West 414 476 40,000  Level Kansas City Center
12:27PM 39.2942 -98.6889 269° West 410 472 40,000  Level Kansas City Center
12:28PM 39.2931 -98.8317 269° West 415 478 40,000  Level Kansas City Center
12:29PM 39.2894 -98.9933 268° West 426 490 40,000  Level Kansas City Center
12:30PM 39.2883 -99.1428 269° West 420 483 40,000  Level Kansas City Center
12:32PM 39.2869 -99.2936 269° West 421 484 40,000  Level Kansas City Center
12:33PM 39.2869 -99.4447 270° West 422 486 40,000  Level Kansas City Center
12:34PM 39.2867 -99.6300 270° West 422 486 40,000  Level Kansas City Center
12:35PM 39.2842 -99.7678 269° West 426 490 40,000  Level Denver Center
12:36PM 39.2831 -99.9364 270° West 422 486 40,000  Level Denver Center
12:37PM 39.2811 -100.0836 269° West 428 493 40,000  Level Denver Center
12:38PM 39.2794 -100.2550 269° West 427 491 40,000  Level Denver Center
12:39PM 39.2775 -100.4003 269° West 424 488 40,000  Level Denver Center
12:40PM 39.2750 -100.5731 269° West 429 494 40,000  Level Denver Center
12:41PM 39.2728 -100.6961 269° West 431 496 40,000  Level Denver Center
12:42PM 39.2708 -100.8436 269° West 430 495 40,000  Level Denver Center
12:43PM 39.2669 -101.0383 269° West 427 491 40,000  Level Denver Center
12:44PM 39.2636 -101.2100 269° West 429 494 40,000  Level Denver Center
12:45PM 39.2608 -101.3583 269° West 430 495 40,000  Level Denver Center
12:46PM 39.2569 -101.5292 268° West 428 493 40,000  Level Denver Center
12:47PM 39.2519 -101.7019 268° West 429 494 40,000  Level Denver Center
12:48PM 39.2500 -101.8250 269° West 431 496 40,000  Level Denver Center
12:49PM 39.2450 -101.9983 268° West 433 498 40,000  Level Denver Center
12:50PM 39.2403 -102.1953 268° West 431 496 40,000  Level Denver Center
12:51PM 39.2386 -102.3436 269° West 433 498 40,000  Level Denver Center
12:52PM 39.2425 -102.5133 272° West 425 489 40,000  Level Denver Center
12:53PM 39.2458 -102.6600 272° West 429 494 40,000  Level Denver Center
12:54PM 39.2494 -102.8039 272° West 426 490 40,000  Level Denver Center
12:56PM 39.2519 -102.9864 271° West 426 490 40,000  Level Denver Center
12:57PM 39.2553 -103.1386 272° West 425 489 40,000  Level Denver Center
12:58PM 39.2578 -103.2922 271° West 428 493 40,000  Level Denver Center
12:59PM 39.2594 -103.4450 271° West 428 493 40,000  Level Denver Center
01:00PM 39.2617 -103.5997 271° West 432 497 40,000  Level Denver Center
01:01PM 39.2639 -103.7536 271° West 430 495 40,000  Level Denver Center
01:02PM 39.2856 -103.9356 279° West 430 495 40,000  Level Denver Center
01:03PM 39.3164 -104.0808 285° West 421 484 40,000  Level Denver Center
01:04PM 39.3481 -104.2289 286° West 425 489 40,000  Level Denver Center
01:05PM 39.3803 -104.3731 286° West 416 479 40,000  Level Denver Center
01:06PM 39.4128 -104.5192 286° West 417 480 40,000  Level Denver Center
01:07PM 39.4447 -104.6639 286° West 413 475 40,000  Level Denver Center
01:08PM 39.4756 -104.8142 285° West 431 496 40,000  Level Denver Center
01:09PM 39.5092 -104.9606 287° West 416 479 40,000  Level Denver Center
01:10PM 39.5339 -105.1661 279° West 411 473 40,000  Level Denver Center
01:11PM 39.5417 -105.3156 274° West 414 476 40,000  Level Denver Center
01:12PM 39.5506 -105.4672 274° West 422 486 40,000  Level Denver Center
01:13PM 39.5586 -105.6172 274° West 421 484 40,000  Level Denver Center
01:14PM 39.5539 -105.7706 268° West 423 487 40,000  Level Denver Center
01:15PM 39.5500 -105.9531 268° West 422 486 40,000  Level Denver Center
01:16PM 39.5461 -106.1078 268° West 430 495 40,000  Level Denver Center
01:17PM 39.5414 -106.2672 268° West 430 495 40,000  Level Denver Center
01:18PM 39.5369 -106.4206 268° West 428 493 40,000  Level Denver Center
01:20PM 39.5322 -106.5653 268° West 424 488 40,000  Level Denver Center
01:21PM 39.5264 -106.7358 268° West 428 493 40,000  Level Denver Center
01:22PM 39.5144 -106.9325 266° West 429 494 40,000  Level Denver Center
01:23PM 39.5117 -107.0819 269° West 436 502 40,000  Level Denver Center
01:24PM 39.5047 -107.2542 267° West 433 498 40,000  Level Denver Center
01:25PM 39.4992 -107.4050 267° West 435 501 40,000  Level Denver Center
01:26PM 39.4925 -107.5806 267° West 437 503 40,000  Level Denver Center
01:27PM 39.4864 -107.7322 267° West 439 505 40,000  Level Denver Center
01:28PM 39.4797 -107.8836 267° West 440 506 40,000  Level Denver Center
01:29PM 39.4714 -108.0642 267° West 446 513 40,000  Level Denver Center
01:30PM 39.4611 -108.2700 266° West 447 514 40,000  Level Denver Center
01:31PM 39.4531 -108.4244 266° West 438 504 40,000  Level Denver Center
01:32PM 39.4439 -108.5817 266° West 449 517 40,000  Level Denver Center
01:33PM 39.4336 -108.7678 266° West 454 522 40,000  Level Denver Center
01:34PM 39.4272 -108.9006 266° West 458 527 40,000  Level Salt Lake Center
01:35PM 39.4178 -109.0847 266° West 456 525 40,000  Level Salt Lake Center
01:36PM 39.4078 -109.2681 266° West 454 522 40,000  Level Denver Center
01:37PM 39.3989 -109.4253 266° West 457 526 40,000  Level Salt Lake Center
01:38PM 39.3894 -109.5814 266° West 455 524 40,000  Level Salt Lake Center
01:39PM 39.3803 -109.7381 266° West 457 526 40,000  Level Salt Lake Center
01:40PM 39.3692 -109.9217 266° West 458 527 40,000  Level Salt Lake Center
01:42PM 39.3594 -110.0764 265° West 454 522 40,000  Level Salt Lake Center
01:43PM 39.3475 -110.2592 265° West 457 526 40,000  Level Salt Lake Center
01:44PM 39.3367 -110.4139 265° West 453 521 40,000  Level Salt Lake Center
01:45PM 39.3247 -110.5967 265° West 457 526 40,000  Level Salt Lake Center
01:46PM 39.3142 -110.7514 265° West 454 522 40,000  Level Salt Lake Center
01:47PM 39.3022 -110.9336 265° West 455 524 40,000  Level Salt Lake Center
01:48PM 39.2892 -111.0881 264° West 455 524 40,000  Level Salt Lake Center
01:49PM 39.2767 -111.2694 265° West 454 522 40,000  Level Salt Lake Center
01:50PM 39.2656 -111.4153 264° West 449 517 40,000  Level Salt Lake Center
01:51PM 39.2533 -111.5772 264° West 452 520 40,000  Level Salt Lake Center
01:52PM 39.2381 -111.7681 264° West 448 516 40,000  Level Salt Lake Center
01:53PM 39.2253 -111.9250 264° West 451 519 40,000  Level Salt Lake Center
01:54PM 39.2122 -112.0864 264° West 454 522 40,000  Level Salt Lake Center
01:55PM 39.1986 -112.2486 264° West 456 525 40,000  Level Salt Lake Center
01:56PM 39.1850 -112.4108 264° West 458 527 40,000  Level Salt Lake Center
01:57PM 39.1675 -112.6056 263° West 458 527 40,000  Level Salt Lake Center
01:58PM 39.1533 -112.7683 264° West 460 529 40,000  Level Salt Lake Center
01:59PM 39.1381 -112.9317 263° West 462 532 40,000  Level Salt Lake Center
02:00PM 39.1239 -113.0953 264° West 462 532 40,000  Level Salt Lake Center
02:01PM 39.1092 -113.2586 263° West 462 532 40,000  Level Salt Lake Center
02:02PM 39.0925 -113.4208 263° West 461 531 40,000  Level Salt Lake Center
02:03PM 39.0742 -113.6164 263° West 461 531 40,000  Level Salt Lake Center
02:04PM 39.0586 -113.7797 263° West 463 533 40,000  Level Salt Lake Center
02:05PM 39.0431 -113.9425 263° West 462 532 40,000  Level Salt Lake Center
02:06PM 39.0261 -114.1064 262° West 465 535 40,000  Level Salt Lake Center
02:07PM 39.0094 -114.2697 263° West 464 534 40,000  Level Salt Lake Center
02:08PM 38.9933 -114.4306 263° West 458 527 40,000  Level Salt Lake Center
02:09PM 38.9742 -114.6222 263° West 453 521 40,000  Level Salt Lake Center
02:10PM 38.9564 -114.7800 262° West 450 518 40,000  Level Salt Lake Center
02:11PM 38.9400 -114.9375 262° West 447 514 40,000  Level Salt Lake Center
02:13PM 38.9228 -115.0936 262° West 444 511 40,000  Level Salt Lake Center
02:14PM 38.9050 -115.2506 262° West 444 511 40,000  Level Salt Lake Center
02:15PM 38.8853 -115.4292 262° West 445 512 40,000  Level Salt Lake Center
02:16PM 38.8661 -115.5861 261° West 446 513 40,000  Level Salt Lake Center
02:17PM 38.8492 -115.7428 262° West 445 512 40,000  Level Salt Lake Center
02:18PM 38.8317 -115.8992 262° West 443 510 40,000  Level Salt Lake Center
02:19PM 38.8125 -116.0558 261° West 446 513 40,000  Level Salt Lake Center
02:20PM 38.7908 -116.2442 262° West 446 513 40,000  Level Salt Lake Center
02:21PM 38.7719 -116.4014 261° West 449 517 40,000  Level Oakland Center
02:22PM 38.7525 -116.5592 261° West 450 518 40,000  Level Oakland Center
02:23PM 38.7339 -116.7164 261° West 450 518 40,000  Level Salt Lake Center
02:24PM 38.7100 -116.9036 261° West 448 516 40,000  Level Oakland Center
02:25PM 38.6911 -117.0611 261° West 449 517 40,000  Level Oakland Center
02:26PM 38.6706 -117.2164 260° West 448 516 40,000  Level Salt Lake Center
02:27PM 38.6511 -117.3719 261° West 447 514 40,000 -300 Level Salt Lake Center
02:28PM 38.6308 -117.5281 261° West 446 513 39,400 -780 Descending Oakland Center
02:29PM 38.6103 -117.6842 260° West 448 516 38,400 -1,080 Descending Oakland Center
02:30PM 38.5864 -117.8708 261° West 447 514 37,200 -720 Descending Oakland Center
02:31PM 38.5831 -118.0283 268° West 448 516 37,000 -540 Descending Oakland Center
02:32PM 38.6331 -118.1858 292° West 454 522 36,100 -1,440 Descending Oakland Center
02:33PM 38.6964 -118.3236 301° West 449 517 34,100 -1,980 Descending Oakland Center
02:34PM 38.7581 -118.4597 300° West 442 509 32,100 -1,860 Descending Oakland Center
02:35PM 38.8178 -118.5956 299° West 437 503 30,400 -1,800 Descending Oakland Center
02:36PM 38.8797 -118.7344 300° West 446 513 28,400 -1,980 Descending Oakland Center
02:37PM 38.9442 -118.8803 300° West 464 534 26,400 -1,980 Descending Oakland Center
02:38PM 39.0200 -119.0122 307° West 459 528 24,400 -1,980 Descending Oakland Center
02:39PM 39.1103 -119.1247 316° Northwest 449 517 22,400 -1,980 Descending Oakland Center
02:40PM 39.1961 -119.2319 316° Northwest 431 496 20,400 -1,920 Descending Oakland Center
02:41PM 39.2761 -119.3314 316° Northwest 401 461 18,500 -1,800 Descending Oakland Center
02:42PM 39.3608 -119.4381 316° Northwest 359 413 16,800 -1,860 Descending Oakland Center
02:43PM 39.4297 -119.5225 317° Northwest 344 396 14,700 -2,100 Descending Oakland Center
02:44PM 39.4900 -119.6008 315° West 318 366 12,500 -1,980 Descending Oakland Center
02:46PM 39.5431 -119.6694 315° West 282 325 10,700 -1,620 Descending Oakland Center
02:47PM 39.6203 -119.6786 355° North 273 314 9,200 -1,440 Descending Oakland Center
02:48PM 39.6344 -119.7494 285° West 244 281 7,800 -1,560 Descending Oakland Center
02:49PM 39.5667 -119.7667 191° South 195 224 5,900 -1,500 Descending Northern Cal TRACON
02:50PM 39.5167 -119.7667 180° South 162 186 4,700 -1,200 Descending Northern Cal TRACON
02:52PM 39.4991 -119.7681 180° South  Level Estimated